Vista, CA (92083)

4:15 AM PDT on August 24, 2016 (GMT -0700)
KE6WOE | | Change Station

Elev 489 ft 33.19 °N, 117.24 °W | Updated 1 minute ago

Overcast
Overcast
63.5 °F
Feels Like 63.5 °F
N
0.0
Wind Variable Wind from SSE

Today
High -- | Low -- °F
--% Chance of Precip.
Yesterday
High -- | Low -- °F
Precip. -- in
Pressure 30.00 in
Visibility 7.0 miles
Clouds Overcast 700 ft
Dew Point 61 °F
Humidity 93%
Rainfall 0.00 in
Snow Depth Not available.
6:18 AM 7:23 PM
Waning Gibbous, 58% visible
METAR KCRQ 241053Z AUTO 00000KT 7SM OVC007 19/18 A3001 RMK AO2 SLP159 T01890178
Pressure 30.00 in
Visibility 7.0 miles
Clouds Overcast 700 ft
Dew Point 61 °F
Humidity 93%
Rainfall 0.00 in
Snow Depth Not available.
6:18 AM 7:23 PM
Waning Gibbous, 58% visible
METAR KCRQ 241053Z AUTO 00000KT 7SM OVC007 19/18 A3001 RMK AO2 SLP159 T01890178

10-Day Weather Forecast

Almanac

Astronomy

Aug. 24, 2016 Rise Set
Actual Time
Civil Twilight
Nautical Twilight
Astronomical Twilight
Moon
Length of Visible Light
Length of Day
Tomorrow will be .
, % of the Moon is Illuminated

Today's Extremes

State Highs State Lows

Community

WunderPhotos

Upload Photos

1,934,565 photos uploaded!

WunderBlog® & News

Nearby

Air Quality

  Air Quality AQ Index Pollutant
Not available.

Snow Depth

Station Depth Elevation

Earthquake Activity

City Distance Mag. Time & Date
Minimum magnitude displayed is 2.5.

Coastal Water Temperatures

Place Temperature

Stations

Nearby Weather Stations

Station Location Temp. Windchill Dew Point Humidity Wind Precip. Elev Updated Type
                   

Watches & Warnings

There are currently no watches in effect.